AAL2414 KSFO-KPHX
Flight info
| Callsign | AAL2414 |
|---|---|
| Flight time | 1h 29m |
| Altitude | 29000 |
| Route | WESLA5 KAYEX LOSHN BOILE BLH HYDRR1 |
| Aircraft | A320/M-SDE3FGHIRWY/LB1 |
Departure
| Time | 2026-05-04 21:12 |
|---|---|
| Airport | San Francisco International Airport (KSFO) |
Arrival
| Time | 2026-05-04 22:41 |
|---|---|
| Airport | Phoenix Sky Harbor International Airport (KPHX) |
| Time | Latitude | Longitude | Altitude | Speed | Heading |
|---|---|---|---|---|---|
| 2026-05-04 20:28 | 37.61005 | -122.38587 | 22 ft | 0 kts | 339° |
| 2026-05-04 20:57 | 37.60991 | -122.38581 | 24 ft | 4 kts | 335° |
| 2026-05-04 20:57 | 37.60967 | -122.38566 | 23 ft | 4 kts | 338° |
| 2026-05-04 20:58 | 37.60941 | -122.38558 | 23 ft | 4 kts | 5° |
| 2026-05-04 20:58 | 37.60927 | -122.38562 | 23 ft | 1 kts | 22° |
| 2026-05-04 20:58 | 37.60925 | -122.38563 | 23 ft | 0 kts | 22° |
| 2026-05-04 21:01 | 37.60943 | -122.38553 | 22 ft | 7 kts | 25° |
| 2026-05-04 21:01 | 37.60966 | -122.38481 | 22 ft | 10 kts | 101° |
| 2026-05-04 21:01 | 37.60934 | -122.38400 | 22 ft | 11 kts | 123° |
| 2026-05-04 21:01 | 37.60891 | -122.38313 | 23 ft | 12 kts | 118° |
| 2026-05-04 21:02 | 37.60869 | -122.38212 | 22 ft | 11 kts | 98° |
| 2026-05-04 21:02 | 37.60843 | -122.38124 | 22 ft | 10 kts | 119° |
| 2026-05-04 21:02 | 37.60811 | -122.38049 | 23 ft | 11 kts | 119° |
| 2026-05-04 21:02 | 37.60760 | -122.37934 | 22 ft | 17 kts | 118° |
| 2026-05-04 21:03 | 37.60757 | -122.37830 | 22 ft | 12 kts | 50° |
| 2026-05-04 21:03 | 37.60826 | -122.37782 | 23 ft | 13 kts | 28° |
| 2026-05-04 21:03 | 37.60919 | -122.37720 | 22 ft | 17 kts | 28° |
| 2026-05-04 21:03 | 37.61034 | -122.37645 | 22 ft | 19 kts | 27° |
| 2026-05-04 21:04 | 37.61153 | -122.37569 | 24 ft | 20 kts | 26° |
| 2026-05-04 21:04 | 37.61276 | -122.37487 | 23 ft | 20 kts | 30° |
| 2026-05-04 21:04 | 37.61401 | -122.37398 | 22 ft | 21 kts | 32° |
| 2026-05-04 21:04 | 37.61519 | -122.37310 | 22 ft | 17 kts | 44° |
| 2026-05-04 21:05 | 37.61557 | -122.37185 | 22 ft | 15 kts | 87° |
| 2026-05-04 21:05 | 37.61533 | -122.37068 | 22 ft | 13 kts | 117° |
| 2026-05-04 21:05 | 37.61493 | -122.36970 | 22 ft | 12 kts | 118° |
| 2026-05-04 21:05 | 37.61444 | -122.36894 | 23 ft | 11 kts | 133° |
| 2026-05-04 21:06 | 37.61395 | -122.36827 | 22 ft | 12 kts | 132° |
| 2026-05-04 21:06 | 37.61341 | -122.36724 | 23 ft | 16 kts | 118° |
| 2026-05-04 21:06 | 37.61292 | -122.36609 | 23 ft | 14 kts | 117° |
| 2026-05-04 21:06 | 37.61250 | -122.36505 | 22 ft | 13 kts | 117° |
| 2026-05-04 21:07 | 37.61211 | -122.36411 | 22 ft | 11 kts | 117° |
| 2026-05-04 21:07 | 37.61172 | -122.36318 | 22 ft | 16 kts | 118° |
| 2026-05-04 21:07 | 37.61108 | -122.36168 | 22 ft | 20 kts | 118° |
| 2026-05-04 21:07 | 37.61068 | -122.36077 | 23 ft | 16 kts | 120° |
| 2026-05-04 21:08 | 37.61051 | -122.35987 | 22 ft | 2 kts | 85° |
| 2026-05-04 21:08 | 37.61051 | -122.35986 | 22 ft | 0 kts | 85° |
| 2026-05-04 21:09 | 37.61062 | -122.35944 | 24 ft | 10 kts | 62° |
| 2026-05-04 21:09 | 37.61107 | -122.35895 | 22 ft | 8 kts | 27° |
| 2026-05-04 21:09 | 37.61153 | -122.35866 | 24 ft | 7 kts | 26° |
| 2026-05-04 21:10 | 37.61186 | -122.35874 | 22 ft | 4 kts | 311° |
| 2026-05-04 21:10 | 37.61190 | -122.35884 | 22 ft | 0 kts | 298° |
| 2026-05-04 21:11 | 37.61191 | -122.35884 | 22 ft | 0 kts | 298° |
| 2026-05-04 21:11 | 37.61255 | -122.36037 | 22 ft | 53 kts | 297° |
| 2026-05-04 21:11 | 37.61531 | -122.36697 | 22 ft | 115 kts | 298° |
| 2026-05-04 21:11 | 37.61981 | -122.37785 | 28 ft | 163 kts | 295° |
| 2026-05-04 21:12 | 37.62509 | -122.39053 | 649 ft | 161 kts | 298° |
| 2026-05-04 21:12 | 37.63045 | -122.40287 | 1322 ft | 160 kts | 297° |
| 2026-05-04 21:12 | 37.63587 | -122.41525 | 1885 ft | 166 kts | 297° |
| 2026-05-04 21:12 | 37.64185 | -122.42892 | 2180 ft | 189 kts | 298° |
| 2026-05-04 21:13 | 37.64862 | -122.44431 | 2485 ft | 211 kts | 299° |
| 2026-05-04 21:13 | 37.65614 | -122.46137 | 2933 ft | 230 kts | 299° |
| 2026-05-04 21:13 | 37.66402 | -122.47921 | 3707 ft | 235 kts | 298° |
| 2026-05-04 21:13 | 37.66925 | -122.49935 | 4243 ft | 254 kts | 269° |
| 2026-05-04 21:14 | 37.66395 | -122.52068 | 4895 ft | 264 kts | 232° |
| 2026-05-04 21:14 | 37.64933 | -122.53444 | 5669 ft | 268 kts | 197° |
| 2026-05-04 21:14 | 37.63084 | -122.53564 | 6550 ft | 270 kts | 169° |
| 2026-05-04 21:14 | 37.61282 | -122.52891 | 7358 ft | 273 kts | 158° |
| 2026-05-04 21:15 | 37.59507 | -122.51971 | 8147 ft | 278 kts | 156° |
| 2026-05-04 21:15 | 37.57710 | -122.51028 | 8987 ft | 282 kts | 157° |
| 2026-05-04 21:15 | 37.55853 | -122.50133 | 9799 ft | 289 kts | 159° |
| 2026-05-04 21:15 | 37.53925 | -122.49296 | 10481 ft | 300 kts | 161° |
| 2026-05-04 21:16 | 37.51854 | -122.48468 | 10749 ft | 324 kts | 160° |
| 2026-05-04 21:16 | 37.49732 | -122.47282 | 10961 ft | 345 kts | 148° |
| 2026-05-04 21:16 | 37.47772 | -122.45419 | 11242 ft | 360 kts | 134° |
| 2026-05-04 21:16 | 37.46130 | -122.43009 | 11829 ft | 366 kts | 128° |
| 2026-05-04 21:17 | 37.44524 | -122.40504 | 12528 ft | 369 kts | 128° |
| 2026-05-04 21:17 | 37.42902 | -122.37977 | 13222 ft | 373 kts | 128° |
| 2026-05-04 21:17 | 37.41262 | -122.35431 | 13867 ft | 377 kts | 128° |
| 2026-05-04 21:17 | 37.39603 | -122.32865 | 14510 ft | 378 kts | 128° |
| 2026-05-04 21:18 | 37.37938 | -122.30293 | 15147 ft | 380 kts | 127° |
| 2026-05-04 21:18 | 37.36266 | -122.27709 | 15788 ft | 382 kts | 128° |
| 2026-05-04 21:18 | 37.34589 | -122.25116 | 16408 ft | 384 kts | 127° |
| 2026-05-04 21:18 | 37.32903 | -122.22502 | 17021 ft | 386 kts | 127° |
| 2026-05-04 21:19 | 37.31207 | -122.19872 | 17577 ft | 389 kts | 127° |
| 2026-05-04 21:19 | 37.29493 | -122.17221 | 18183 ft | 391 kts | 127° |
| 2026-05-04 21:19 | 37.27790 | -122.14591 | 18623 ft | 396 kts | 127° |
| 2026-05-04 21:19 | 37.26046 | -122.11900 | 19132 ft | 399 kts | 127° |
| 2026-05-04 21:20 | 37.24289 | -122.09196 | 19647 ft | 401 kts | 127° |
| 2026-05-04 21:20 | 37.22522 | -122.06479 | 20168 ft | 403 kts | 126° |
| 2026-05-04 21:20 | 37.20747 | -122.03753 | 20698 ft | 404 kts | 126° |
| 2026-05-04 21:20 | 37.18938 | -122.00973 | 21205 ft | 406 kts | 126° |
| 2026-05-04 21:21 | 37.17151 | -121.98223 | 21689 ft | 408 kts | 126° |
| 2026-05-04 21:21 | 37.15379 | -121.95497 | 22128 ft | 410 kts | 126° |
| 2026-05-04 21:21 | 37.13567 | -121.92714 | 22521 ft | 413 kts | 126° |
| 2026-05-04 21:21 | 37.11747 | -121.89920 | 22996 ft | 415 kts | 125° |
| 2026-05-04 21:22 | 37.09892 | -121.87078 | 23440 ft | 417 kts | 125° |
| 2026-05-04 21:22 | 37.08081 | -121.84303 | 23761 ft | 419 kts | 125° |
| 2026-05-04 21:22 | 37.06228 | -121.81469 | 24057 ft | 421 kts | 125° |
| 2026-05-04 21:22 | 37.04368 | -121.78631 | 24384 ft | 423 kts | 126° |
| 2026-05-04 21:23 | 37.02492 | -121.75775 | 24707 ft | 425 kts | 126° |
| 2026-05-04 21:23 | 37.00608 | -121.72907 | 24978 ft | 428 kts | 126° |
| 2026-05-04 21:23 | 36.98712 | -121.70018 | 25233 ft | 432 kts | 126° |
| 2026-05-04 21:23 | 36.96797 | -121.67108 | 25522 ft | 434 kts | 127° |
| 2026-05-04 21:24 | 36.94875 | -121.64185 | 25814 ft | 437 kts | 127° |
| 2026-05-04 21:24 | 36.92944 | -121.61244 | 26095 ft | 439 kts | 127° |
| 2026-05-04 21:24 | 36.90999 | -121.58283 | 26357 ft | 441 kts | 127° |
| 2026-05-04 21:24 | 36.89046 | -121.55321 | 26615 ft | 443 kts | 127° |
| 2026-05-04 21:25 | 36.87077 | -121.52341 | 26869 ft | 446 kts | 127° |
| 2026-05-04 21:25 | 36.85094 | -121.49343 | 27062 ft | 450 kts | 128° |
| 2026-05-04 21:25 | 36.83094 | -121.46320 | 27254 ft | 453 kts | 128° |
| 2026-05-04 21:25 | 36.81083 | -121.43280 | 27473 ft | 455 kts | 128° |
| 2026-05-04 21:26 | 36.79058 | -121.40224 | 27677 ft | 458 kts | 129° |
| 2026-05-04 21:26 | 36.77021 | -121.37157 | 27897 ft | 460 kts | 129° |
| 2026-05-04 21:26 | 36.74975 | -121.34081 | 28144 ft | 461 kts | 129° |
| 2026-05-04 21:26 | 36.72924 | -121.31000 | 28423 ft | 462 kts | 129° |
| 2026-05-04 21:27 | 36.70874 | -121.27915 | 28648 ft | 464 kts | 131° |
| 2026-05-04 21:27 | 36.68814 | -121.24809 | 28882 ft | 465 kts | 130° |
| 2026-05-04 21:27 | 36.66750 | -121.21696 | 29037 ft | 466 kts | 131° |
| 2026-05-04 21:27 | 36.64690 | -121.18601 | 29055 ft | 465 kts | 131° |
| 2026-05-04 21:28 | 36.60556 | -121.12404 | 29043 ft | 465 kts | 131° |
| 2026-05-04 21:28 | 36.56421 | -121.06212 | 29036 ft | 467 kts | 133° |
| 2026-05-04 21:29 | 36.52246 | -121.00002 | 29037 ft | 468 kts | 133° |
| 2026-05-04 21:29 | 36.48060 | -120.93783 | 29024 ft | 469 kts | 133° |
| 2026-05-04 21:30 | 36.43924 | -120.87585 | 29022 ft | 469 kts | 133° |
| 2026-05-04 21:30 | 36.39766 | -120.81338 | 29027 ft | 470 kts | 133° |
| 2026-05-04 21:31 | 36.33506 | -120.71977 | 29029 ft | 470 kts | 133° |
| 2026-05-04 21:32 | 36.29320 | -120.65745 | 29035 ft | 470 kts | 133° |
| 2026-05-04 21:32 | 36.25127 | -120.59528 | 29027 ft | 471 kts | 134° |
| 2026-05-04 21:33 | 36.20931 | -120.53296 | 29020 ft | 471 kts | 134° |
| 2026-05-04 21:33 | 36.16731 | -120.47054 | 29023 ft | 472 kts | 134° |
| 2026-05-04 21:34 | 36.12520 | -120.40823 | 29010 ft | 472 kts | 136° |
| 2026-05-04 21:34 | 36.08303 | -120.34594 | 29000 ft | 473 kts | 137° |
| 2026-05-04 21:35 | 36.04071 | -120.28359 | 29008 ft | 474 kts | 137° |
| 2026-05-04 21:35 | 35.99833 | -120.22121 | 29013 ft | 474 kts | 137° |
| 2026-05-04 21:36 | 35.95582 | -120.15892 | 29009 ft | 474 kts | 138° |
| 2026-05-04 21:36 | 35.91331 | -120.09666 | 28988 ft | 474 kts | 139° |
| 2026-05-04 21:37 | 35.87081 | -120.03448 | 29008 ft | 474 kts | 139° |
| 2026-05-04 21:37 | 35.82815 | -119.97239 | 29010 ft | 474 kts | 139° |
| 2026-05-04 21:38 | 35.78538 | -119.91144 | 29002 ft | 473 kts | 141° |
| 2026-05-04 21:38 | 35.74189 | -119.85008 | 29011 ft | 473 kts | 141° |
| 2026-05-04 21:39 | 35.69870 | -119.78895 | 28997 ft | 473 kts | 141° |
| 2026-05-04 21:39 | 35.65591 | -119.72827 | 28990 ft | 473 kts | 141° |
| 2026-05-04 21:40 | 35.61283 | -119.66731 | 28998 ft | 472 kts | 141° |
| 2026-05-04 21:40 | 35.56964 | -119.60644 | 29003 ft | 472 kts | 141° |
| 2026-05-04 21:41 | 35.52647 | -119.54572 | 29000 ft | 472 kts | 141° |
| 2026-05-04 21:41 | 35.48331 | -119.48498 | 29002 ft | 473 kts | 141° |
| 2026-05-04 21:42 | 35.44008 | -119.42419 | 29014 ft | 473 kts | 141° |
| 2026-05-04 21:42 | 35.39678 | -119.36345 | 29019 ft | 472 kts | 142° |
| 2026-05-04 21:43 | 35.35352 | -119.30293 | 29016 ft | 472 kts | 142° |
| 2026-05-04 21:43 | 35.31027 | -119.24260 | 28982 ft | 471 kts | 142° |
| 2026-05-04 21:44 | 35.26709 | -119.18236 | 28987 ft | 471 kts | 142° |
| 2026-05-04 21:44 | 35.22383 | -119.12222 | 28991 ft | 471 kts | 142° |
| 2026-05-04 21:45 | 35.18062 | -119.06221 | 28979 ft | 470 kts | 143° |
| 2026-05-04 21:45 | 35.13739 | -119.00227 | 28991 ft | 469 kts | 143° |
| 2026-05-04 21:46 | 35.09429 | -118.94253 | 28975 ft | 468 kts | 143° |
| 2026-05-04 21:46 | 35.05122 | -118.88307 | 28980 ft | 468 kts | 143° |
| 2026-05-04 21:47 | 35.00809 | -118.82367 | 28964 ft | 468 kts | 143° |
| 2026-05-04 21:47 | 34.96492 | -118.76436 | 28992 ft | 468 kts | 143° |
| 2026-05-04 21:48 | 34.92203 | -118.70535 | 29004 ft | 468 kts | 143° |
| 2026-05-04 21:48 | 34.87890 | -118.64604 | 28975 ft | 467 kts | 144° |
| 2026-05-04 21:49 | 34.83568 | -118.58690 | 28977 ft | 467 kts | 144° |
| 2026-05-04 21:49 | 34.79248 | -118.52783 | 28980 ft | 468 kts | 144° |
| 2026-05-04 21:50 | 34.74915 | -118.46868 | 28982 ft | 468 kts | 144° |
| 2026-05-04 21:50 | 34.70582 | -118.40977 | 28992 ft | 468 kts | 144° |
| 2026-05-04 21:51 | 34.66249 | -118.35087 | 28968 ft | 467 kts | 144° |
| 2026-05-04 21:51 | 34.61917 | -118.29191 | 28983 ft | 468 kts | 144° |
| 2026-05-04 21:52 | 34.57576 | -118.23299 | 28983 ft | 468 kts | 144° |
| 2026-05-04 21:52 | 34.53224 | -118.17407 | 28975 ft | 469 kts | 144° |
| 2026-05-04 21:53 | 34.48868 | -118.11529 | 29020 ft | 469 kts | 145° |
| 2026-05-04 21:53 | 34.44519 | -118.05628 | 28964 ft | 474 kts | 142° |
| 2026-05-04 21:53 | 34.42640 | -118.02264 | 28982 ft | 493 kts | 131° |
| 2026-05-04 21:54 | 34.41230 | -117.98396 | 28988 ft | 512 kts | 119° |
| 2026-05-04 21:54 | 34.39264 | -117.90082 | 28986 ft | 517 kts | 116° |
| 2026-05-04 21:55 | 34.37285 | -117.81727 | 28988 ft | 517 kts | 117° |
| 2026-05-04 21:55 | 34.35269 | -117.73373 | 28996 ft | 518 kts | 118° |
| 2026-05-04 21:56 | 34.33573 | -117.66360 | 28997 ft | 519 kts | 117° |
| 2026-05-04 21:56 | 34.31548 | -117.57984 | 28999 ft | 519 kts | 117° |
| 2026-05-04 21:57 | 34.29528 | -117.49603 | 29001 ft | 520 kts | 117° |
| 2026-05-04 21:57 | 34.27490 | -117.41193 | 29019 ft | 523 kts | 118° |
| 2026-05-04 21:58 | 34.25425 | -117.32754 | 29015 ft | 524 kts | 118° |
| 2026-05-04 21:58 | 34.23354 | -117.24302 | 29042 ft | 524 kts | 118° |
| 2026-05-04 21:59 | 34.21285 | -117.15852 | 28945 ft | 524 kts | 118° |
| 2026-05-04 21:59 | 34.19213 | -117.07417 | 28963 ft | 523 kts | 118° |
| 2026-05-04 22:00 | 34.17132 | -116.99003 | 28961 ft | 523 kts | 118° |
| 2026-05-04 22:00 | 34.15056 | -116.90611 | 28955 ft | 521 kts | 118° |
| 2026-05-04 22:01 | 34.12971 | -116.82237 | 28980 ft | 521 kts | 118° |
| 2026-05-04 22:01 | 34.10881 | -116.73852 | 28960 ft | 522 kts | 118° |
| 2026-05-04 22:02 | 34.08788 | -116.65480 | 28975 ft | 521 kts | 119° |
| 2026-05-04 22:02 | 34.06688 | -116.57112 | 28954 ft | 521 kts | 119° |
| 2026-05-04 22:03 | 34.04590 | -116.48764 | 28942 ft | 520 kts | 119° |
| 2026-05-04 22:03 | 34.02497 | -116.40495 | 28938 ft | 519 kts | 119° |
| 2026-05-04 22:04 | 34.00387 | -116.32185 | 28931 ft | 518 kts | 119° |
| 2026-05-04 22:04 | 33.98279 | -116.23896 | 28894 ft | 517 kts | 119° |
| 2026-05-04 22:05 | 33.96161 | -116.15577 | 28902 ft | 515 kts | 119° |
| 2026-05-04 22:05 | 33.94055 | -116.07328 | 28902 ft | 515 kts | 119° |
| 2026-05-04 22:06 | 33.91938 | -115.99091 | 28897 ft | 515 kts | 119° |
| 2026-05-04 22:06 | 33.89819 | -115.90858 | 28870 ft | 514 kts | 119° |
| 2026-05-04 22:07 | 33.87705 | -115.82681 | 28883 ft | 516 kts | 119° |
| 2026-05-04 22:07 | 33.85549 | -115.74379 | 28875 ft | 517 kts | 119° |
| 2026-05-04 22:08 | 33.83406 | -115.66133 | 28890 ft | 517 kts | 119° |
| 2026-05-04 22:08 | 33.81283 | -115.57931 | 28858 ft | 516 kts | 118° |
| 2026-05-04 22:09 | 33.79133 | -115.49696 | 28868 ft | 516 kts | 118° |
| 2026-05-04 22:09 | 33.76976 | -115.41476 | 28883 ft | 516 kts | 118° |
| 2026-05-04 22:10 | 33.74815 | -115.33270 | 28883 ft | 514 kts | 118° |
| 2026-05-04 22:10 | 33.72661 | -115.25103 | 28912 ft | 512 kts | 118° |
| 2026-05-04 22:11 | 33.70512 | -115.16970 | 28924 ft | 511 kts | 118° |
| 2026-05-04 22:11 | 33.68362 | -115.08854 | 28926 ft | 510 kts | 118° |
| 2026-05-04 22:12 | 33.66206 | -115.00751 | 28899 ft | 509 kts | 117° |
| 2026-05-04 22:12 | 33.64047 | -114.92671 | 28905 ft | 508 kts | 117° |
| 2026-05-04 22:13 | 33.61882 | -114.84607 | 28904 ft | 508 kts | 118° |
| 2026-05-04 22:13 | 33.59714 | -114.76540 | 28909 ft | 509 kts | 117° |
| 2026-05-04 22:14 | 33.57850 | -114.68295 | 28914 ft | 515 kts | 112° |
| 2026-05-04 22:14 | 33.56344 | -114.59864 | 28918 ft | 518 kts | 111° |
| 2026-05-04 22:15 | 33.54848 | -114.51424 | 28623 ft | 517 kts | 112° |
| 2026-05-04 22:15 | 33.54050 | -114.47231 | 28353 ft | 516 kts | 112° |
| 2026-05-04 22:15 | 33.53219 | -114.43040 | 28104 ft | 516 kts | 112° |
| 2026-05-04 22:15 | 33.52373 | -114.38859 | 27846 ft | 517 kts | 113° |
| 2026-05-04 22:16 | 33.51523 | -114.34669 | 27565 ft | 518 kts | 112° |
| 2026-05-04 22:16 | 33.50677 | -114.30473 | 27313 ft | 519 kts | 112° |
| 2026-05-04 22:16 | 33.49836 | -114.26257 | 26938 ft | 519 kts | 111° |
| 2026-05-04 22:16 | 33.49005 | -114.22043 | 25736 ft | 523 kts | 111° |
| 2026-05-04 22:17 | 33.48173 | -114.17801 | 25074 ft | 517 kts | 110° |
| 2026-05-04 22:17 | 33.47376 | -114.13689 | 24937 ft | 498 kts | 110° |
| 2026-05-04 22:17 | 33.46613 | -114.09738 | 25007 ft | 477 kts | 111° |
| 2026-05-04 22:17 | 33.45867 | -114.05925 | 24826 ft | 465 kts | 111° |
| 2026-05-04 22:18 | 33.45114 | -114.02183 | 24691 ft | 462 kts | 111° |
| 2026-05-04 22:18 | 33.44351 | -113.98453 | 24511 ft | 460 kts | 111° |
| 2026-05-04 22:18 | 33.43590 | -113.94741 | 24353 ft | 459 kts | 111° |
| 2026-05-04 22:18 | 33.42835 | -113.91035 | 24189 ft | 457 kts | 111° |
| 2026-05-04 22:19 | 33.42087 | -113.87341 | 24011 ft | 456 kts | 111° |
| 2026-05-04 22:19 | 33.41345 | -113.83654 | 23849 ft | 455 kts | 111° |
| 2026-05-04 22:19 | 33.40607 | -113.79972 | 23680 ft | 454 kts | 111° |
| 2026-05-04 22:19 | 33.39868 | -113.76302 | 23511 ft | 453 kts | 111° |
| 2026-05-04 22:20 | 33.39129 | -113.72645 | 23316 ft | 451 kts | 111° |
| 2026-05-04 22:20 | 33.38390 | -113.68999 | 23155 ft | 451 kts | 111° |
| 2026-05-04 22:20 | 33.37653 | -113.65362 | 22973 ft | 449 kts | 111° |
| 2026-05-04 22:20 | 33.36915 | -113.61740 | 22801 ft | 448 kts | 111° |
| 2026-05-04 22:21 | 33.36181 | -113.58124 | 22618 ft | 446 kts | 111° |
| 2026-05-04 22:21 | 33.35451 | -113.54526 | 22437 ft | 445 kts | 111° |
| 2026-05-04 22:21 | 33.34719 | -113.50934 | 22261 ft | 444 kts | 111° |
| 2026-05-04 22:21 | 33.33985 | -113.47353 | 22095 ft | 443 kts | 110° |
| 2026-05-04 22:22 | 33.33271 | -113.43777 | 21845 ft | 442 kts | 109° |
| 2026-05-04 22:22 | 33.32619 | -113.40191 | 21499 ft | 441 kts | 108° |
| 2026-05-04 22:22 | 33.32011 | -113.36600 | 21219 ft | 440 kts | 107° |
| 2026-05-04 22:22 | 33.31424 | -113.33023 | 20932 ft | 438 kts | 107° |
| 2026-05-04 22:23 | 33.30838 | -113.29462 | 20648 ft | 435 kts | 107° |
| 2026-05-04 22:23 | 33.30244 | -113.25920 | 20364 ft | 433 kts | 107° |
| 2026-05-04 22:23 | 33.29644 | -113.22405 | 20082 ft | 432 kts | 106° |
| 2026-05-04 22:23 | 33.29080 | -113.18886 | 19807 ft | 431 kts | 105° |
| 2026-05-04 22:24 | 33.28566 | -113.15370 | 19527 ft | 429 kts | 104° |
| 2026-05-04 22:24 | 33.28079 | -113.11855 | 19249 ft | 427 kts | 103° |
| 2026-05-04 22:24 | 33.27613 | -113.08385 | 19040 ft | 418 kts | 101° |
| 2026-05-04 22:24 | 33.27472 | -113.04942 | 18801 ft | 413 kts | 90° |
| 2026-05-04 22:25 | 33.27575 | -113.01536 | 18514 ft | 408 kts | 90° |
| 2026-05-04 22:25 | 33.27668 | -112.98163 | 18245 ft | 405 kts | 90° |
| 2026-05-04 22:25 | 33.27751 | -112.94855 | 17921 ft | 402 kts | 90° |
| 2026-05-04 22:25 | 33.27830 | -112.91529 | 17639 ft | 399 kts | 90° |
| 2026-05-04 22:26 | 33.27906 | -112.88226 | 17355 ft | 397 kts | 90° |
| 2026-05-04 22:26 | 33.27982 | -112.84943 | 17107 ft | 391 kts | 91° |
| 2026-05-04 22:26 | 33.28071 | -112.81737 | 16964 ft | 382 kts | 89° |
| 2026-05-04 22:26 | 33.28260 | -112.78594 | 16691 ft | 377 kts | 86° |
| 2026-05-04 22:27 | 33.28540 | -112.75490 | 16286 ft | 376 kts | 84° |
| 2026-05-04 22:27 | 33.28867 | -112.72410 | 16027 ft | 371 kts | 84° |
| 2026-05-04 22:27 | 33.29202 | -112.69363 | 15692 ft | 369 kts | 84° |
| 2026-05-04 22:27 | 33.29528 | -112.66327 | 15345 ft | 367 kts | 84° |
| 2026-05-04 22:28 | 33.29835 | -112.63310 | 15015 ft | 365 kts | 85° |
| 2026-05-04 22:28 | 33.30124 | -112.60310 | 14703 ft | 362 kts | 85° |
| 2026-05-04 22:28 | 33.30398 | -112.57330 | 14390 ft | 359 kts | 86° |
| 2026-05-04 22:28 | 33.30665 | -112.54370 | 14077 ft | 357 kts | 86° |
| 2026-05-04 22:29 | 33.30930 | -112.51437 | 13766 ft | 354 kts | 86° |
| 2026-05-04 22:29 | 33.31194 | -112.48536 | 13186 ft | 349 kts | 86° |
| 2026-05-04 22:29 | 33.31455 | -112.45679 | 12574 ft | 344 kts | 86° |
| 2026-05-04 22:29 | 33.31712 | -112.42858 | 12346 ft | 339 kts | 86° |
| 2026-05-04 22:30 | 33.31967 | -112.40068 | 12044 ft | 337 kts | 86° |
| 2026-05-04 22:30 | 33.32221 | -112.37295 | 11719 ft | 334 kts | 86° |
| 2026-05-04 22:30 | 33.32474 | -112.34543 | 11399 ft | 333 kts | 87° |
| 2026-05-04 22:30 | 33.32725 | -112.31801 | 11073 ft | 332 kts | 87° |
| 2026-05-04 22:31 | 33.32976 | -112.29070 | 10751 ft | 328 kts | 87° |
| 2026-05-04 22:31 | 33.33226 | -112.26370 | 10429 ft | 326 kts | 87° |
| 2026-05-04 22:31 | 33.33470 | -112.23684 | 10115 ft | 324 kts | 87° |
| 2026-05-04 22:31 | 33.33711 | -112.21024 | 9917 ft | 317 kts | 88° |
| 2026-05-04 22:32 | 33.33944 | -112.18456 | 9776 ft | 306 kts | 88° |
| 2026-05-04 22:32 | 33.34167 | -112.15923 | 9389 ft | 306 kts | 88° |
| 2026-05-04 22:32 | 33.34387 | -112.13431 | 9218 ft | 297 kts | 88° |
| 2026-05-04 22:32 | 33.34605 | -112.11022 | 9088 ft | 286 kts | 88° |
| 2026-05-04 22:33 | 33.34763 | -112.08698 | 8956 ft | 274 kts | 95° |
| 2026-05-04 22:33 | 33.34736 | -112.06433 | 8647 ft | 272 kts | 95° |
| 2026-05-04 22:33 | 33.34707 | -112.04188 | 8351 ft | 269 kts | 95° |
| 2026-05-04 22:33 | 33.34677 | -112.01967 | 8069 ft | 266 kts | 95° |
| 2026-05-04 22:34 | 33.34646 | -111.99769 | 7794 ft | 262 kts | 95° |
| 2026-05-04 22:34 | 33.34613 | -111.97597 | 7515 ft | 260 kts | 95° |
| 2026-05-04 22:34 | 33.34582 | -111.95447 | 7280 ft | 256 kts | 95° |
| 2026-05-04 22:34 | 33.34556 | -111.93363 | 7123 ft | 247 kts | 95° |
| 2026-05-04 22:35 | 33.34567 | -111.91346 | 6896 ft | 245 kts | 93° |
| 2026-05-04 22:35 | 33.34614 | -111.89292 | 6626 ft | 242 kts | 92° |
| 2026-05-04 22:35 | 33.34671 | -111.87289 | 6363 ft | 240 kts | 92° |
| 2026-05-04 22:35 | 33.34726 | -111.85307 | 6063 ft | 238 kts | 91° |
| 2026-05-04 22:36 | 33.34869 | -111.83339 | 5744 ft | 240 kts | 77° |
| 2026-05-04 22:36 | 33.35629 | -111.81600 | 5576 ft | 234 kts | 48° |
| 2026-05-04 22:36 | 33.36888 | -111.80501 | 5489 ft | 219 kts | 21° |
| 2026-05-04 22:36 | 33.38303 | -111.80096 | 5253 ft | 207 kts | 2° |
| 2026-05-04 22:37 | 33.39721 | -111.80255 | 4943 ft | 203 kts | 341° |
| 2026-05-04 22:37 | 33.40977 | -111.80942 | 4718 ft | 193 kts | 323° |
| 2026-05-04 22:37 | 33.41949 | -111.82014 | 4391 ft | 189 kts | 304° |
| 2026-05-04 22:37 | 33.42604 | -111.83392 | 3911 ft | 192 kts | 287° |
| 2026-05-04 22:38 | 33.42860 | -111.84938 | 3598 ft | 187 kts | 270° |
| 2026-05-04 22:38 | 33.42864 | -111.86473 | 3344 ft | 183 kts | 269° |
| 2026-05-04 22:38 | 33.42868 | -111.87973 | 3101 ft | 175 kts | 269° |
| 2026-05-04 22:38 | 33.42870 | -111.88911 | 2953 ft | 165 kts | 269° |
| 2026-05-04 22:39 | 33.42872 | -111.90630 | 2703 ft | 146 kts | 269° |
| 2026-05-04 22:39 | 33.42874 | -111.91449 | 2560 ft | 144 kts | 269° |
| 2026-05-04 22:39 | 33.42876 | -111.92635 | 2382 ft | 142 kts | 270° |
| 2026-05-04 22:39 | 33.42877 | -111.93790 | 2177 ft | 138 kts | 272° |
| 2026-05-04 22:40 | 33.42879 | -111.94961 | 2030 ft | 142 kts | 268° |
| 2026-05-04 22:40 | 33.42880 | -111.96102 | 1852 ft | 139 kts | 269° |
| 2026-05-04 22:40 | 33.42880 | -111.97269 | 1670 ft | 140 kts | 272° |
| 2026-05-04 22:40 | 33.42874 | -111.98424 | 1455 ft | 137 kts | 270° |
| 2026-05-04 22:41 | 33.42879 | -111.99553 | 1277 ft | 135 kts | 271° |
| 2026-05-04 22:41 | 33.42885 | -112.00670 | 1130 ft | 129 kts | 274° |
| 2026-05-04 22:41 | 33.42889 | -112.01562 | 1128 ft | 83 kts | 270° |
| 2026-05-04 22:41 | 33.42889 | -112.02043 | 1125 ft | 30 kts | 270° |
| 2026-05-04 22:42 | 33.42939 | -112.02153 | 1124 ft | 13 kts | 342° |
| 2026-05-04 22:42 | 33.42991 | -112.02125 | 1119 ft | 7 kts | 62° |
| 2026-05-04 22:42 | 33.42994 | -112.02067 | 1125 ft | 9 kts | 89° |
| 2026-05-04 22:42 | 33.42994 | -112.01965 | 1126 ft | 14 kts | 90° |
| 2026-05-04 22:43 | 33.42994 | -112.01851 | 1126 ft | 13 kts | 90° |
| 2026-05-04 22:43 | 33.42994 | -112.01748 | 1126 ft | 12 kts | 90° |
| 2026-05-04 22:43 | 33.42994 | -112.01654 | 1122 ft | 11 kts | 90° |
| 2026-05-04 22:43 | 33.42995 | -112.01562 | 1123 ft | 13 kts | 90° |
| 2026-05-04 22:44 | 33.42994 | -112.01444 | 1127 ft | 16 kts | 90° |
| 2026-05-04 22:44 | 33.42994 | -112.01309 | 1123 ft | 16 kts | 90° |
| 2026-05-04 22:44 | 33.42995 | -112.01185 | 1126 ft | 14 kts | 90° |
| 2026-05-04 22:44 | 33.42995 | -112.01070 | 1121 ft | 13 kts | 90° |
| 2026-05-04 22:45 | 33.42994 | -112.00955 | 1121 ft | 15 kts | 90° |
| 2026-05-04 22:45 | 33.42995 | -112.00730 | 1121 ft | 13 kts | 90° |
| 2026-05-04 22:45 | 33.43015 | -112.00639 | 1126 ft | 10 kts | 39° |
| 2026-05-04 22:46 | 33.43069 | -112.00625 | 1133 ft | 8 kts | 2° |
| 2026-05-04 22:46 | 33.43142 | -112.00621 | 1136 ft | 12 kts | 14° |
| 2026-05-04 22:46 | 33.43204 | -112.00542 | 1122 ft | 14 kts | 66° |
| 2026-05-04 22:46 | 33.43264 | -112.00470 | 1123 ft | 13 kts | 11° |
| 2026-05-04 22:47 | 33.43364 | -112.00467 | 1120 ft | 18 kts | 0° |
| 2026-05-04 22:47 | 33.43494 | -112.00468 | 1119 ft | 20 kts | 360° |
| 2026-05-04 22:47 | 33.43632 | -112.00468 | 1122 ft | 20 kts | 360° |
| 2026-05-04 22:47 | 33.43764 | -112.00470 | 1121 ft | 13 kts | 359° |
| 2026-05-04 22:48 | 33.43844 | -112.00470 | 1125 ft | 11 kts | 0° |
| 2026-05-04 22:48 | 33.43902 | -112.00428 | 1125 ft | 10 kts | 71° |
| 2026-05-04 22:48 | 33.43904 | -112.00340 | 1125 ft | 10 kts | 91° |
| 2026-05-04 22:48 | 33.43905 | -112.00254 | 1125 ft | 11 kts | 89° |
| 2026-05-04 22:49 | 33.43905 | -112.00170 | 1125 ft | 10 kts | 90° |
| 2026-05-04 22:49 | 33.43904 | -112.00086 | 1125 ft | 8 kts | 90° |
| 2026-05-04 22:49 | 33.43879 | -112.00033 | 1125 ft | 8 kts | 158° |
| 2026-05-04 22:49 | 33.43824 | -112.00030 | 1119 ft | 7 kts | 180° |
| 2026-05-04 22:50 | 33.43794 | -112.00013 | 1123 ft | 4 kts | 105° |
| 2026-05-04 22:50 | 33.43794 | -111.99985 | 1115 ft | 2 kts | 87° |
| 2026-05-04 22:50 | 33.43795 | -111.99976 | 1125 ft | 0 kts | 87° |